createdAt,value
2019-02-14T00:00:28.758Z,8.20
2019-02-14T00:03:01.877Z,8.20
2019-02-14T00:05:33.531Z,8.20
2019-02-14T00:08:05.091Z,8.30
2019-02-14T00:10:36.926Z,8.20
2019-02-14T00:13:08.435Z,8.30
2019-02-14T00:15:39.999Z,8.20
2019-02-14T00:18:11.520Z,8.20
2019-02-14T00:20:43.024Z,8.10
2019-02-14T00:23:32.654Z,8.20
2019-02-14T00:26:04.292Z,8.30
2019-02-14T00:28:43.589Z,8.20
2019-02-14T00:31:15.178Z,8.20
2019-02-14T00:33:46.753Z,8.10
2019-02-14T00:36:18.244Z,8.20
2019-02-14T00:38:49.710Z,8.20
2019-02-14T00:41:22.225Z,8.00
2019-02-14T00:43:53.844Z,8.10
2019-02-14T00:46:25.307Z,8.00
2019-02-14T00:48:57.045Z,8.00
2019-02-14T00:51:31.224Z,8.10
2019-02-14T00:54:02.767Z,8.00
2019-02-14T00:56:34.307Z,8.00
2019-02-14T00:59:05.780Z,7.90
2019-02-14T01:01:37.218Z,8.00
2019-02-14T01:04:09.023Z,8.00
2019-02-14T01:06:40.520Z,8.00
2019-02-14T01:09:12.107Z,8.00
2019-02-14T01:11:43.572Z,8.00
2019-02-14T01:14:15.100Z,8.00
2019-02-14T01:16:46.808Z,8.00
2019-02-14T01:19:37.527Z,8.00
2019-02-14T01:22:08.980Z,8.00
2019-02-14T01:24:41.060Z,8.00
2019-02-14T01:27:12.524Z,8.00
2019-02-14T01:29:44.800Z,7.90
2019-02-14T01:32:16.328Z,7.90
2019-02-14T01:34:47.828Z,7.80
2019-02-14T01:37:21.058Z,7.90
2019-02-14T01:40:11.558Z,7.80
2019-02-14T01:42:43.007Z,7.70
2019-02-14T01:45:14.502Z,7.70
2019-02-14T01:47:45.989Z,7.60
2019-02-14T01:50:17.501Z,7.60
2019-02-14T01:52:48.954Z,7.60
2019-02-14T01:55:20.509Z,7.70
2019-02-14T01:57:52.039Z,7.80
2019-02-14T02:00:23.729Z,7.70
2019-02-14T02:02:55.171Z,7.70
2019-02-14T02:05:26.648Z,7.80
2019-02-14T02:08:00.926Z,7.70
2019-02-14T02:10:32.480Z,7.60
2019-02-14T02:13:03.976Z,7.50
2019-02-14T02:15:36.552Z,7.40
2019-02-14T02:18:08.031Z,7.30
2019-02-14T02:20:39.578Z,7.30
2019-02-14T02:23:11.194Z,7.10
2019-02-14T02:25:42.660Z,7.10
2019-02-14T02:28:14.141Z,7.10
2019-02-14T02:30:45.652Z,7.10
2019-02-14T02:33:17.172Z,7.20
2019-02-14T02:35:48.719Z,7.20
2019-02-14T02:38:20.327Z,7.20
2019-02-14T02:40:51.874Z,7.20
2019-02-14T02:43:23.378Z,7.20
2019-02-14T02:45:54.878Z,7.10
2019-02-14T02:48:26.687Z,7.20
2019-02-14T02:50:58.188Z,7.30
2019-02-14T02:53:29.670Z,7.30
2019-02-14T02:56:01.178Z,7.30
2019-02-14T02:58:32.778Z,7.50
2019-02-14T03:01:04.303Z,7.50
2019-02-14T03:03:35.784Z,7.30
2019-02-14T03:06:10.693Z,7.30
2019-02-14T03:08:40.533Z,7.40
2019-02-14T03:11:11.977Z,7.40
2019-02-14T03:13:43.410Z,7.40
2019-02-14T03:16:14.878Z,7.30
2019-02-14T03:18:46.352Z,7.30
2019-02-14T03:21:17.828Z,7.30
2019-02-14T03:23:49.251Z,7.30
2019-02-14T03:26:21.103Z,7.30
2019-02-14T03:28:52.530Z,7.30
2019-02-14T03:31:24.010Z,7.30
2019-02-14T03:33:55.439Z,7.20
2019-02-14T03:36:26.936Z,7.20
2019-02-14T03:38:58.364Z,7.20
2019-02-14T03:41:29.832Z,7.30
2019-02-14T03:44:01.463Z,7.40
2019-02-14T03:46:34.676Z,7.40
2019-02-14T03:49:06.086Z,7.40
2019-02-14T03:51:37.586Z,7.40
2019-02-14T03:54:10.129Z,7.40
2019-02-14T03:56:41.710Z,7.50
2019-02-14T03:59:13.219Z,7.60
2019-02-14T04:01:46.381Z,7.70
2019-02-14T04:04:17.861Z,7.70
2019-02-14T04:06:49.365Z,7.70
2019-02-14T04:09:20.907Z,7.80
2019-02-14T04:11:52.352Z,7.70
2019-02-14T04:14:25.837Z,7.60
2019-02-14T04:16:57.309Z,7.60
2019-02-14T04:19:29.179Z,7.50
2019-02-14T04:22:00.651Z,7.50
2019-02-14T04:24:32.094Z,7.30
2019-02-14T04:27:03.553Z,7.30
2019-02-14T04:29:35.009Z,7.30
2019-02-14T04:32:06.486Z,7.30
2019-02-14T04:34:37.910Z,7.20
2019-02-14T04:37:09.368Z,7.20
2019-02-14T04:39:40.830Z,7.20
2019-02-14T04:42:12.341Z,7.10
2019-02-14T04:44:43.826Z,7.10
2019-02-14T04:47:15.709Z,7.20
2019-02-14T04:49:47.217Z,7.30
2019-02-14T04:52:18.693Z,7.30
2019-02-14T04:54:50.176Z,7.30
2019-02-14T04:57:21.756Z,7.20
2019-02-14T05:00:06.019Z,7.30
2019-02-14T05:02:37.500Z,7.30
2019-02-14T05:05:09.725Z,7.20
2019-02-14T05:07:41.206Z,7.40
2019-02-14T05:10:13.087Z,7.40
2019-02-14T05:12:44.649Z,7.50
2019-02-14T05:15:16.114Z,7.50
2019-02-14T05:17:47.769Z,7.30
2019-02-14T05:20:19.229Z,7.30
2019-02-14T05:23:10.155Z,7.40
2019-02-14T05:25:41.598Z,7.40
2019-02-14T05:28:13.087Z,7.40
2019-02-14T05:30:44.553Z,7.40
2019-02-14T05:33:15.993Z,7.40
2019-02-14T05:35:47.439Z,7.40
2019-02-14T05:38:18.999Z,7.50
2019-02-14T05:40:50.491Z,7.40
2019-02-14T05:43:22.081Z,7.50
2019-02-14T05:45:53.604Z,7.50
2019-02-14T05:48:37.010Z,7.40
2019-02-14T05:51:08.496Z,7.60
2019-02-14T05:53:39.952Z,7.50
2019-02-14T05:56:11.402Z,7.40
2019-02-14T05:58:42.871Z,7.40
2019-02-14T06:01:17.637Z,7.40
2019-02-14T06:03:50.108Z,7.40
2019-02-14T06:06:21.574Z,7.30
2019-02-14T06:08:53.065Z,7.30
2019-02-14T06:11:24.545Z,7.30
2019-02-14T06:13:55.996Z,7.30
2019-02-14T06:16:27.737Z,7.30
2019-02-14T06:18:59.295Z,7.50
2019-02-14T06:21:30.770Z,7.40
2019-02-14T06:24:02.392Z,7.40
2019-02-14T06:26:33.860Z,7.50
2019-02-14T06:29:05.458Z,7.70
2019-02-14T06:31:37.518Z,7.50
2019-02-14T06:34:11.102Z,7.60
2019-02-14T06:36:42.576Z,7.60
2019-02-14T06:39:14.080Z,7.70
2019-02-14T06:41:45.715Z,7.70
2019-02-14T06:44:17.160Z,7.70
2019-02-14T06:46:48.665Z,7.50
2019-02-14T06:49:39.224Z,7.50
2019-02-14T06:52:11.072Z,7.70
2019-02-14T06:54:42.620Z,7.70
2019-02-14T06:57:14.146Z,7.60
2019-02-14T06:59:45.634Z,7.50
2019-02-14T07:02:17.084Z,7.60
2019-02-14T07:04:48.620Z,7.60
2019-02-14T07:07:20.198Z,7.50
2019-02-14T07:09:51.684Z,7.50
2019-02-14T07:12:23.284Z,7.50
2019-02-14T07:14:54.758Z,7.50
2019-02-14T07:17:26.208Z,7.60
2019-02-14T07:19:57.698Z,7.60
2019-02-14T07:22:29.178Z,7.70
2019-02-14T07:25:03.732Z,7.70
2019-02-14T07:27:35.302Z,7.80
2019-02-14T07:30:13.416Z,7.80
2019-02-14T07:32:44.944Z,7.80
2019-02-14T07:35:16.523Z,7.90
2019-02-14T07:37:48.049Z,7.90
2019-02-14T07:40:19.594Z,8.10
2019-02-14T07:42:51.300Z,8.20
2019-02-14T07:45:26.612Z,8.00
2019-02-14T07:48:14.756Z,7.90
2019-02-14T07:50:51.267Z,7.90
2019-02-14T07:53:26.956Z,7.90
2019-02-14T07:56:19.207Z,7.90
2019-02-14T07:58:51.945Z,8.00
2019-02-14T08:01:52.001Z,8.00
2019-02-14T08:04:30.994Z,8.10
2019-02-14T08:07:09.956Z,8.20
2019-02-14T08:09:48.726Z,8.20
2019-02-14T08:12:22.212Z,8.30
2019-02-14T08:14:54.020Z,8.30
2019-02-14T08:17:26.034Z,8.30
2019-02-14T08:20:00.317Z,8.20
2019-02-14T08:22:55.731Z,8.20
2019-02-14T08:25:50.748Z,8.30
2019-02-14T08:28:23.987Z,8.20
2019-02-14T08:31:28.364Z,8.20
2019-02-14T08:34:00.196Z,8.00
2019-02-14T08:36:36.388Z,8.00
2019-02-14T08:39:10.290Z,8.10
2019-02-14T08:41:41.900Z,8.10
2019-02-14T08:44:26.342Z,8.00
2019-02-14T08:49:59.995Z,8.20
2019-02-14T08:52:55.132Z,8.20
2019-02-14T08:55:37.221Z,8.20
2019-02-14T08:58:17.658Z,8.30
2019-02-14T09:01:06.255Z,8.20
2019-02-14T09:03:37.826Z,8.30
2019-02-14T09:06:09.553Z,8.10
2019-02-14T09:08:41.135Z,8.10
2019-02-14T09:11:14.317Z,8.10
2019-02-14T09:13:46.918Z,8.00
2019-02-14T09:16:18.485Z,7.90
2019-02-14T09:18:50.177Z,8.00
2019-02-14T09:21:23.202Z,8.00
2019-02-14T09:23:59.874Z,8.00
2019-02-14T09:26:32.508Z,7.90
2019-02-14T09:29:04.553Z,8.10
2019-02-14T09:31:36.292Z,8.30
2019-02-14T09:34:08.397Z,8.30
2019-02-14T09:36:43.377Z,8.00
2019-02-14T09:39:18.407Z,7.90
2019-02-14T09:41:50.017Z,7.70
2019-02-14T09:44:22.845Z,7.70
2019-02-14T09:46:54.968Z,7.60
2019-02-14T09:49:26.704Z,7.60
2019-02-14T09:51:58.390Z,7.50
2019-02-14T09:54:31.770Z,7.50
2019-02-14T09:57:04.997Z,7.50
2019-02-14T09:59:36.674Z,7.50
2019-02-14T10:02:09.838Z,7.50
2019-02-14T10:04:41.412Z,7.50
2019-02-14T10:07:12.889Z,7.50
2019-02-14T10:09:44.506Z,7.50
2019-02-14T10:12:15.984Z,7.60
2019-02-14T10:14:47.525Z,7.70
2019-02-14T10:17:22.229Z,7.70
2019-02-14T10:19:52.423Z,7.70
2019-02-14T10:22:24.879Z,7.80
2019-02-14T10:24:58.001Z,7.90
2019-02-14T10:27:31.049Z,8.00
2019-02-14T10:30:17.171Z,8.00
2019-02-14T10:32:48.697Z,7.90
2019-02-14T10:35:21.255Z,7.90
2019-02-14T10:37:52.666Z,8.00
2019-02-14T10:40:24.632Z,8.10
2019-02-14T10:42:57.507Z,8.10
2019-02-14T10:45:29.059Z,8.20
2019-02-14T10:48:01.890Z,8.20
2019-02-14T10:50:33.477Z,8.30
2019-02-14T10:53:05.097Z,8.40
2019-02-14T10:55:38.213Z,8.50
2019-02-14T10:58:12.993Z,8.50
2019-02-14T11:00:46.010Z,8.60
2019-02-14T11:03:17.873Z,8.60
2019-02-14T11:05:49.557Z,8.60
2019-02-14T11:08:21.660Z,8.70
2019-02-14T11:11:05.349Z,8.70
2019-02-14T11:13:37.395Z,8.70
2019-02-14T11:16:09.883Z,8.70
2019-02-14T11:18:44.394Z,8.70
2019-02-14T11:21:14.610Z,8.70
2019-02-14T11:23:46.205Z,8.80
2019-02-14T11:26:17.817Z,8.80
2019-02-14T11:28:49.519Z,8.90
2019-02-14T11:31:21.125Z,8.90
2019-02-14T11:33:52.758Z,8.90
2019-02-14T11:36:24.574Z,9.00
2019-02-14T11:38:56.369Z,9.10
2019-02-14T11:41:30.671Z,9.20
2019-02-14T11:44:02.955Z,9.20
2019-02-14T11:46:34.587Z,9.30
2019-02-14T11:49:06.128Z,9.30
2019-02-14T11:51:57.450Z,9.30
2019-02-14T11:54:29.051Z,9.40
2019-02-14T11:57:00.652Z,9.50
2019-02-14T11:59:32.215Z,9.60
2019-02-14T12:02:03.855Z,9.70
2019-02-14T12:04:35.516Z,9.80
2019-02-14T12:07:07.033Z,9.70
2019-02-14T12:09:38.480Z,9.80
2019-02-14T12:12:10.057Z,9.80
2019-02-14T12:14:41.650Z,9.90
2019-02-14T12:17:13.237Z,9.90
2019-02-14T12:19:44.824Z,9.90
2019-02-14T12:22:16.305Z,10.00
2019-02-14T12:24:47.898Z,10.00
2019-02-14T12:27:19.501Z,10.10
2019-02-14T12:29:54.025Z,10.20
2019-02-14T12:32:26.732Z,10.20
2019-02-14T12:34:58.360Z,10.20
2019-02-14T12:37:29.876Z,10.30
2019-02-14T12:40:05.038Z,10.30
2019-02-14T12:42:36.702Z,10.30
2019-02-14T12:45:20.059Z,10.40
2019-02-14T12:47:44.020Z,10.50
2019-02-14T12:50:15.548Z,10.60
2019-02-14T12:52:47.061Z,10.70
2019-02-14T12:55:18.565Z,10.70
2019-02-14T12:57:50.043Z,10.80
2019-02-14T13:00:22.381Z,10.90
2019-02-14T13:02:53.887Z,10.90
2019-02-14T13:05:25.354Z,10.90
2019-02-14T13:07:58.058Z,10.90
2019-02-14T13:10:47.002Z,10.90
2019-02-14T13:13:18.585Z,10.90
2019-02-14T13:15:50.087Z,11.00
2019-02-14T13:18:21.622Z,11.00
2019-02-14T13:20:55.982Z,11.00
2019-02-14T13:23:27.534Z,11.10
2019-02-14T13:25:59.121Z,11.10
2019-02-14T13:28:33.138Z,11.20
2019-02-14T13:31:04.808Z,11.20
2019-02-14T13:33:36.326Z,11.30
2019-02-14T13:36:12.593Z,11.30
2019-02-14T13:38:44.154Z,11.30
2019-02-14T13:41:15.950Z,11.40
2019-02-14T13:43:48.980Z,11.40
2019-02-14T13:46:21.596Z,11.40
2019-02-14T13:48:53.172Z,11.40
2019-02-14T13:51:27.229Z,11.40
2019-02-14T13:53:59.119Z,11.40
2019-02-14T13:56:30.648Z,11.50
2019-02-14T13:59:02.224Z,11.50
2019-02-14T14:01:34.856Z,11.50
2019-02-14T14:04:10.078Z,11.50
2019-02-14T14:06:41.605Z,11.50
2019-02-14T14:09:13.835Z,11.50
2019-02-14T14:11:45.663Z,11.50
2019-02-14T14:14:17.311Z,11.50
2019-02-14T14:16:51.796Z,11.50
2019-02-14T14:19:23.479Z,11.50
2019-02-14T14:21:55.341Z,11.50
2019-02-14T14:24:27.117Z,11.50
2019-02-14T14:26:58.644Z,11.50
2019-02-14T14:29:30.267Z,11.50
2019-02-14T14:32:01.832Z,11.50
2019-02-14T14:34:33.477Z,11.50
2019-02-14T14:37:06.610Z,11.50
2019-02-14T14:39:38.181Z,11.50
2019-02-14T14:42:35.932Z,11.50
2019-02-14T14:45:09.890Z,11.50
2019-02-14T14:47:41.343Z,11.50
2019-02-14T14:50:14.927Z,11.50
2019-02-14T14:52:46.473Z,11.50
2019-02-14T14:55:20.617Z,11.50
2019-02-14T14:57:52.345Z,11.40
2019-02-14T15:00:26.981Z,11.40
2019-02-14T15:03:00.219Z,11.30
2019-02-14T15:05:32.148Z,11.30
2019-02-14T15:08:04.244Z,11.30
2019-02-14T15:10:36.062Z,11.30
2019-02-14T15:13:14.703Z,11.30
2019-02-14T15:15:51.027Z,11.30
2019-02-14T15:18:29.666Z,11.30
2019-02-14T15:21:06.325Z,11.30
2019-02-14T15:23:37.955Z,11.20
2019-02-14T15:26:09.497Z,11.20
2019-02-14T15:28:49.954Z,11.10
2019-02-14T15:31:40.920Z,11.10
2019-02-14T15:34:12.463Z,11.10
2019-02-14T15:37:03.747Z,11.00
2019-02-14T15:39:35.461Z,11.00
2019-02-14T15:42:07.178Z,10.90
2019-02-14T15:44:39.012Z,10.90
2019-02-14T15:47:14.247Z,10.80
2019-02-14T15:49:51.379Z,10.80
2019-02-14T15:52:27.456Z,10.80
2019-02-14T15:55:02.439Z,10.70
2019-02-14T15:57:34.179Z,10.70
2019-02-14T16:00:09.651Z,10.60
2019-02-14T16:02:39.351Z,10.60
2019-02-14T16:05:10.988Z,10.50
2019-02-14T16:07:42.672Z,10.40
2019-02-14T16:10:18.473Z,10.40
2019-02-14T16:12:51.274Z,10.40
2019-02-14T16:15:30.851Z,10.30
2019-02-14T16:18:12.967Z,10.20
2019-02-14T16:20:46.569Z,10.20
2019-02-14T16:23:22.133Z,10.10
2019-02-14T16:25:54.064Z,10.00
2019-02-14T16:28:26.053Z,9.90
2019-02-14T16:30:57.540Z,9.90
2019-02-14T16:33:29.023Z,9.90
2019-02-14T16:36:08.112Z,9.80
2019-02-14T16:38:42.095Z,9.80
2019-02-14T16:41:13.760Z,9.80
2019-02-14T16:43:45.775Z,9.70
2019-02-14T16:46:21.833Z,9.70
2019-02-14T16:48:53.533Z,9.70
2019-02-14T16:51:25.142Z,9.70
2019-02-14T16:53:56.677Z,9.60
2019-02-14T16:56:28.244Z,9.50
2019-02-14T16:58:59.770Z,9.40
2019-02-14T17:01:47.902Z,9.40
2019-02-14T17:04:23.215Z,9.40
2019-02-14T17:06:54.983Z,9.40
2019-02-14T17:09:26.501Z,9.40
2019-02-14T17:11:58.036Z,9.40
2019-02-14T17:14:29.544Z,9.30
2019-02-14T17:17:03.166Z,9.20
2019-02-14T17:19:36.244Z,9.10
2019-02-14T17:22:07.860Z,9.10
2019-02-14T17:24:39.345Z,9.10
2019-02-14T17:27:10.857Z,9.00
2019-02-14T17:29:42.539Z,9.00
2019-02-14T17:32:17.771Z,9.00
2019-02-14T17:34:51.022Z,9.00
2019-02-14T17:37:23.698Z,8.90
2019-02-14T17:39:55.370Z,8.90
2019-02-14T17:42:27.024Z,8.80
2019-02-14T17:44:58.600Z,8.80
2019-02-14T17:47:30.205Z,8.80
2019-02-14T17:50:01.923Z,8.80
2019-02-14T17:52:33.461Z,8.70
2019-02-14T17:55:05.096Z,8.70
2019-02-14T17:57:57.878Z,8.60
2019-02-14T18:00:30.520Z,8.60
2019-02-14T18:03:02.131Z,8.60
2019-02-14T18:05:35.444Z,8.50
2019-02-14T18:08:10.882Z,8.50
2019-02-14T18:10:44.327Z,8.40
2019-02-14T18:13:16.382Z,8.40
2019-02-14T18:15:51.306Z,8.40
2019-02-14T18:18:22.910Z,8.40
2019-02-14T18:20:54.680Z,8.30
2019-02-14T18:23:26.475Z,8.30
2019-02-14T18:25:58.306Z,8.30
2019-02-14T18:28:30.096Z,8.20
2019-02-14T18:31:04.673Z,8.30
2019-02-14T18:33:36.228Z,8.30
2019-02-14T18:36:07.777Z,8.20
2019-02-14T18:38:39.354Z,8.20
2019-02-14T18:41:15.408Z,8.20
2019-02-14T18:43:47.093Z,8.10
2019-02-14T18:46:19.876Z,8.20
2019-02-14T18:48:51.390Z,8.20
2019-02-14T18:51:27.078Z,8.10
2019-02-14T18:53:58.787Z,8.00
2019-02-14T18:56:30.670Z,8.00
2019-02-14T18:59:03.445Z,8.00
2019-02-14T19:01:35.442Z,7.90
2019-02-14T19:04:07.128Z,7.90
2019-02-14T19:06:38.786Z,7.90
2019-02-14T19:09:12.286Z,7.90
2019-02-14T19:11:52.139Z,8.00
2019-02-14T19:14:26.306Z,8.00
2019-02-14T19:16:57.936Z,7.90
2019-02-14T19:19:31.566Z,7.80
2019-02-14T19:22:03.625Z,7.90
2019-02-14T19:24:37.272Z,7.80
2019-02-14T19:27:09.046Z,7.80
2019-02-14T19:29:41.812Z,7.70
2019-02-14T19:32:13.611Z,7.70
2019-02-14T19:34:45.417Z,7.70
2019-02-14T19:37:17.067Z,7.70
2019-02-14T19:39:48.656Z,7.60
2019-02-14T19:42:20.365Z,7.60
2019-02-14T19:44:52.668Z,7.70
2019-02-14T19:47:24.319Z,7.70
2019-02-14T19:49:55.981Z,7.60
2019-02-14T19:52:33.262Z,7.60
2019-02-14T19:55:04.845Z,7.60
2019-02-14T19:57:36.488Z,7.50
2019-02-14T20:00:15.175Z,7.50
2019-02-14T20:02:46.910Z,7.40
2019-02-14T20:05:18.543Z,7.30
2019-02-14T20:07:50.412Z,7.20
2019-02-14T20:10:22.093Z,7.10
2019-02-14T20:12:54.061Z,7.00
2019-02-14T20:15:25.533Z,7.00
2019-02-14T20:18:02.179Z,6.90
2019-02-14T20:20:33.708Z,6.90
2019-02-14T20:23:05.717Z,6.80
2019-02-14T20:25:37.294Z,6.70
2019-02-14T20:28:11.893Z,6.70
2019-02-14T20:30:44.506Z,6.60
2019-02-14T20:33:16.255Z,6.60
2019-02-14T20:35:50.582Z,6.60
2019-02-14T20:38:22.334Z,6.60
2019-02-14T20:40:54.054Z,6.60
2019-02-14T20:43:25.882Z,6.50
2019-02-14T20:45:57.593Z,6.50
2019-02-14T20:48:29.303Z,6.60
2019-02-14T20:51:00.830Z,6.50
2019-02-14T20:53:32.601Z,6.40
2019-02-14T20:56:04.206Z,6.50
2019-02-14T20:58:36.975Z,6.50
2019-02-14T21:01:09.785Z,6.60
2019-02-14T21:03:43.515Z,6.60
2019-02-14T21:06:19.047Z,6.50
2019-02-14T21:08:53.587Z,6.50
2019-02-14T21:11:25.625Z,6.50
2019-02-14T21:13:58.679Z,6.60
2019-02-14T21:16:30.288Z,6.60
2019-02-14T21:19:01.902Z,6.60
2019-02-14T21:21:36.721Z,6.60
2019-02-14T21:24:10.493Z,6.60
2019-02-14T21:26:42.039Z,6.70
2019-02-14T21:29:13.569Z,6.50
2019-02-14T21:31:45.268Z,6.40
2019-02-14T21:34:17.201Z,6.30
2019-02-14T21:36:50.196Z,6.30
2019-02-14T21:39:23.383Z,6.30
2019-02-14T21:42:17.619Z,6.20
2019-02-14T21:44:30.147Z,6.10
2019-02-14T21:47:03.005Z,6.20
2019-02-14T21:49:36.077Z,6.20
2019-02-14T21:52:09.115Z,6.20
2019-02-14T21:54:41.725Z,6.10
2019-02-14T21:57:13.249Z,6.00
2019-02-14T21:59:48.307Z,6.00
2019-02-14T22:02:24.573Z,6.00
2019-02-14T22:04:59.048Z,6.10
2019-02-14T22:07:34.938Z,6.00
2019-02-14T22:10:05.722Z,6.00
2019-02-14T22:12:41.390Z,6.00
2019-02-14T22:15:17.236Z,6.00
2019-02-14T22:17:51.936Z,6.00
2019-02-14T22:20:25.262Z,5.90
2019-02-14T22:22:58.670Z,5.80
2019-02-14T22:25:33.952Z,5.70
2019-02-14T22:28:08.374Z,5.70
2019-02-14T22:30:44.641Z,5.60
2019-02-14T22:33:16.251Z,5.50
2019-02-14T22:35:50.421Z,5.40
2019-02-14T22:38:24.301Z,5.40
2019-02-14T22:41:00.854Z,5.30
2019-02-14T22:43:35.602Z,5.20
2019-02-14T22:46:10.044Z,5.20
2019-02-14T22:48:41.802Z,5.10
2019-02-14T22:51:13.309Z,5.10
2019-02-14T22:53:44.943Z,5.10
2019-02-14T22:56:16.515Z,4.90
2019-02-14T22:58:48.027Z,4.90
2019-02-14T23:01:19.705Z,4.90
2019-02-14T23:03:51.334Z,4.80
2019-02-14T23:06:22.940Z,4.80
2019-02-14T23:08:59.623Z,4.70
2019-02-14T23:11:36.074Z,4.70
2019-02-14T23:14:08.673Z,4.70
2019-02-14T23:17:10.660Z,4.60
2019-02-14T23:19:43.456Z,4.60
2019-02-14T23:22:16.733Z,4.50
2019-02-14T23:24:48.233Z,4.50
2019-02-14T23:27:19.653Z,4.40
2019-02-14T23:29:51.139Z,4.40
2019-02-14T23:32:23.129Z,4.30
2019-02-14T23:35:05.800Z,4.20
2019-02-14T23:37:39.037Z,4.20
2019-02-14T23:40:18.056Z,4.30
2019-02-14T23:42:49.649Z,4.30
2019-02-14T23:45:21.194Z,4.20
2019-02-14T23:47:52.723Z,4.20
2019-02-14T23:50:24.224Z,4.10
2019-02-14T23:52:55.774Z,4.10
2019-02-14T23:55:27.343Z,4.00
2019-02-14T23:57:59.037Z,3.90
